createdAt,value
2018-07-11T00:00:10.009Z,3.20
2018-07-11T00:04:14.709Z,4.10
2018-07-11T00:08:19.042Z,4.07
2018-07-11T00:12:23.548Z,3.77
2018-07-11T00:16:27.949Z,3.87
2018-07-11T00:20:32.320Z,4.03
2018-07-11T00:24:37.028Z,4.20
2018-07-11T00:28:41.742Z,4.47
2018-07-11T00:32:46.295Z,5.47
2018-07-11T00:36:50.733Z,4.40
2018-07-11T00:40:55.253Z,4.87
2018-07-11T00:44:59.859Z,3.47
2018-07-11T00:49:04.449Z,3.83
2018-07-11T00:53:08.851Z,3.50
2018-07-11T00:57:13.506Z,4.67
2018-07-11T01:01:18.043Z,4.50
2018-07-11T01:05:22.530Z,4.60
2018-07-11T01:09:27.191Z,3.90
2018-07-11T01:13:31.764Z,4.33
2018-07-11T01:17:41.385Z,4.27
2018-07-11T01:21:45.902Z,4.30
2018-07-11T01:25:50.296Z,4.50
2018-07-11T01:29:54.806Z,4.90
2018-07-11T01:33:59.739Z,4.50
2018-07-11T01:38:04.141Z,4.20
2018-07-11T01:42:08.654Z,5.00
2018-07-11T01:46:13.157Z,4.50
2018-07-11T01:50:17.872Z,4.37
2018-07-11T01:54:22.395Z,6.10
2018-07-11T01:58:27.073Z,4.13
2018-07-11T02:02:31.684Z,5.17
2018-07-11T02:06:36.278Z,5.67
2018-07-11T02:10:40.978Z,5.13
2018-07-11T02:14:49.691Z,4.63
2018-07-11T02:18:54.248Z,5.03
2018-07-11T02:22:58.934Z,5.63
2018-07-11T02:27:03.582Z,5.57
2018-07-11T02:31:07.981Z,5.00
2018-07-11T02:35:12.714Z,5.40
2018-07-11T02:39:17.259Z,4.80
2018-07-11T02:43:21.819Z,5.20
2018-07-11T02:47:31.289Z,5.10
2018-07-11T02:51:35.754Z,4.80
2018-07-11T02:55:40.146Z,5.90
2018-07-11T02:59:44.710Z,5.10
2018-07-11T03:03:49.117Z,6.13
2018-07-11T03:07:53.676Z,5.80
2018-07-11T03:11:58.043Z,6.43
2018-07-11T03:16:02.648Z,6.00
2018-07-11T03:20:07.222Z,5.80
2018-07-11T03:24:11.611Z,5.40
2018-07-11T03:28:16.067Z,6.13
2018-07-11T03:32:20.621Z,6.60
2018-07-11T03:36:24.998Z,6.00
2018-07-11T03:40:29.399Z,6.23
2018-07-11T03:44:33.980Z,7.60
2018-07-11T03:48:38.561Z,6.60
2018-07-11T03:52:43.988Z,7.10
2018-07-11T03:56:48.502Z,7.27
2018-07-11T04:00:53.188Z,7.07
2018-07-11T04:04:57.713Z,6.97
2018-07-11T04:09:02.047Z,6.50
2018-07-11T04:13:09.497Z,6.83
2018-07-11T04:17:13.842Z,5.77
2018-07-11T04:21:18.430Z,7.30
2018-07-11T04:25:23.119Z,7.10
2018-07-11T04:29:27.607Z,6.80
2018-07-11T04:33:32.178Z,6.37
2018-07-11T04:37:36.742Z,7.77
2018-07-11T04:41:41.470Z,7.40
2018-07-11T04:45:47.018Z,8.60
2018-07-11T04:49:52.061Z,8.07
2018-07-11T04:53:56.583Z,9.00
2018-07-11T04:58:01.221Z,8.60
2018-07-11T05:02:05.588Z,7.67
2018-07-11T05:06:09.994Z,7.30
2018-07-11T05:10:14.443Z,8.10
2018-07-11T05:14:19.063Z,7.27
2018-07-11T05:18:23.536Z,8.37
2018-07-11T05:22:27.954Z,9.20
2018-07-11T05:26:32.316Z,6.87
2018-07-11T05:30:36.726Z,7.00
2018-07-11T05:34:42.220Z,6.83
2018-07-11T05:38:46.665Z,8.03
2018-07-11T05:42:51.046Z,6.97
2018-07-11T05:47:00.404Z,6.77
2018-07-11T05:51:04.845Z,7.27
2018-07-11T05:55:09.395Z,8.10
2018-07-11T05:59:13.771Z,7.00
2018-07-11T06:03:18.213Z,7.70
2018-07-11T06:07:22.634Z,7.77
2018-07-11T06:11:27.028Z,8.53
2018-07-11T06:15:31.374Z,6.67
2018-07-11T06:19:35.877Z,6.20
2018-07-11T06:23:40.267Z,7.17
2018-07-11T06:27:44.726Z,7.20
2018-07-11T06:31:49.086Z,6.67
2018-07-11T06:35:53.562Z,7.67
2018-07-11T06:39:58.035Z,7.63
2018-07-11T06:44:02.443Z,7.80
2018-07-11T06:48:06.825Z,6.60
2018-07-11T06:52:11.364Z,6.53
2018-07-11T06:56:15.712Z,6.60
2018-07-11T07:00:20.191Z,4.80
2018-07-11T07:04:24.541Z,4.73
2018-07-11T07:08:28.906Z,6.37
2018-07-11T07:12:33.481Z,6.27
2018-07-11T07:16:37.883Z,5.40
2018-07-11T07:20:42.277Z,5.53
2018-07-11T07:24:46.726Z,5.00
2018-07-11T07:28:51.311Z,5.70
2018-07-11T07:32:55.763Z,6.07
2018-07-11T07:37:00.194Z,5.00
2018-07-11T07:41:04.784Z,5.77
2018-07-11T07:45:09.250Z,5.53
2018-07-11T07:49:13.759Z,4.83
2018-07-11T07:53:18.326Z,4.30
2018-07-11T07:57:23.035Z,4.90
2018-07-11T08:01:27.426Z,5.73
2018-07-11T08:05:31.891Z,5.47
2018-07-11T08:09:36.268Z,5.60
2018-07-11T08:13:40.729Z,4.97
2018-07-11T08:17:45.115Z,5.70
2018-07-11T08:21:49.551Z,5.07
2018-07-11T08:26:05.742Z,4.60
2018-07-11T08:43:01.739Z,4.67
2018-07-11T08:47:21.229Z,4.77
2018-07-11T08:53:39.354Z,6.70
2018-07-11T09:02:02.645Z,4.73
2018-07-11T09:08:55.900Z,6.30
2018-07-11T09:13:25.248Z,6.60
2018-07-11T09:18:11.153Z,7.17
2018-07-11T09:24:34.928Z,5.63
2018-07-11T09:28:39.334Z,7.33
2018-07-11T09:32:43.910Z,6.60
2018-07-11T09:36:48.459Z,5.40
2018-07-11T09:40:53.046Z,5.50
2018-07-11T09:44:57.554Z,5.67
2018-07-11T09:49:02.073Z,6.30
2018-07-11T09:53:06.696Z,5.90
2018-07-11T09:57:11.336Z,4.90
2018-07-11T10:01:21.011Z,4.47
2018-07-11T10:05:25.580Z,4.23
2018-07-11T10:09:30.130Z,4.80
2018-07-11T10:13:34.552Z,4.77
2018-07-11T10:17:39.265Z,3.63
2018-07-11T10:21:43.689Z,5.10
2018-07-11T10:25:48.095Z,4.13
2018-07-11T10:29:52.796Z,4.90
2018-07-11T10:33:57.347Z,4.60
2018-07-11T10:38:01.705Z,3.70
2018-07-11T10:42:06.116Z,3.77
2018-07-11T10:46:10.520Z,3.17
2018-07-11T10:50:14.944Z,2.67
2018-07-11T10:54:19.459Z,2.33
2018-07-11T10:58:23.946Z,2.40
2018-07-11T11:02:28.582Z,2.33
2018-07-11T11:06:33.019Z,2.30
2018-07-11T11:10:37.558Z,1.67
2018-07-11T11:14:42.061Z,1.87
2018-07-11T11:18:46.504Z,2.10
2018-07-11T11:22:51.017Z,1.80
2018-07-11T11:26:55.550Z,2.00
2018-07-11T11:30:59.978Z,2.40
2018-07-11T11:35:04.444Z,2.10
2018-07-11T11:39:09.106Z,2.27
2018-07-11T11:43:13.520Z,1.90
2018-07-11T11:47:22.138Z,2.23
2018-07-11T11:51:26.567Z,2.13
2018-07-11T11:55:31.140Z,1.83
2018-07-11T11:59:35.614Z,2.00
2018-07-11T12:03:40.033Z,2.03
2018-07-11T12:07:44.466Z,2.27
2018-07-11T12:11:48.974Z,2.13
2018-07-11T12:15:53.329Z,2.27
2018-07-11T12:19:57.888Z,2.03
2018-07-11T12:24:02.444Z,1.90
2018-07-11T12:28:06.902Z,1.70
2018-07-11T12:32:11.687Z,1.60
2018-07-11T12:36:16.066Z,1.97
2018-07-11T12:40:20.600Z,1.60
2018-07-11T12:44:25.094Z,1.93
2018-07-11T12:48:34.459Z,2.40
2018-07-11T12:52:38.911Z,2.13
2018-07-11T12:56:43.482Z,2.13
2018-07-11T13:00:48.486Z,2.20
2018-07-11T13:04:53.787Z,2.10
2018-07-11T13:08:58.367Z,2.40
2018-07-11T13:13:02.747Z,2.00
2018-07-11T13:17:07.225Z,2.23
2018-07-11T13:21:11.691Z,2.10
2018-07-11T13:25:16.107Z,2.70
2018-07-11T13:29:20.490Z,2.40
2018-07-11T13:33:24.997Z,2.70
2018-07-11T13:37:29.486Z,2.53
2018-07-11T13:41:33.988Z,2.53
2018-07-11T13:45:38.448Z,3.13
2018-07-11T13:49:43.022Z,3.17
2018-07-11T13:53:47.640Z,3.80
2018-07-11T13:57:52.219Z,4.90
2018-07-11T14:01:56.738Z,4.60
2018-07-11T14:06:01.134Z,5.17
2018-07-11T14:10:05.623Z,3.70
2018-07-11T14:14:10.369Z,3.10
2018-07-11T14:18:15.246Z,3.77
2018-07-11T14:22:19.651Z,3.67
2018-07-11T14:26:24.343Z,3.53
2018-07-11T14:30:28.976Z,3.60
2018-07-11T14:34:34.629Z,4.20
2018-07-11T14:38:39.006Z,3.00
2018-07-11T14:42:44.118Z,3.10
2018-07-11T14:46:48.724Z,3.70
2018-07-11T14:50:53.267Z,3.33
2018-07-11T14:54:57.889Z,2.70
2018-07-11T14:59:02.333Z,6.08
2018-07-11T15:03:06.745Z,3.87
2018-07-11T15:07:11.218Z,3.50
2018-07-11T15:11:15.742Z,3.73
2018-07-11T15:15:20.298Z,4.50
2018-07-11T15:19:24.875Z,2.80
2018-07-11T15:23:31.818Z,3.80
2018-07-11T15:27:36.476Z,3.40
2018-07-11T15:31:41.049Z,3.90
2018-07-11T15:35:46.001Z,4.63
2018-07-11T15:39:50.836Z,3.00
2018-07-11T15:43:55.431Z,3.10
2018-07-11T15:48:01.809Z,3.30
2018-07-11T15:52:06.207Z,3.20
2018-07-11T15:56:10.797Z,3.97
2018-07-11T16:00:15.361Z,3.80
2018-07-11T16:04:40.633Z,3.70
2018-07-11T16:08:50.494Z,4.43
2018-07-11T16:12:54.930Z,4.40
2018-07-11T16:16:59.341Z,4.73
2018-07-11T16:21:04.183Z,4.37
2018-07-11T16:25:08.639Z,3.93
2018-07-11T16:29:13.523Z,4.40
2018-07-11T16:33:20.688Z,2.93
2018-07-11T16:37:25.164Z,4.70
2018-07-11T16:41:30.385Z,4.23
2018-07-11T16:45:35.195Z,5.40
2018-07-11T16:49:41.269Z,4.60
2018-07-11T16:53:45.922Z,5.37
2018-07-11T16:57:52.276Z,4.20
2018-07-11T17:01:59.631Z,4.23
2018-07-11T17:06:09.290Z,5.10
2018-07-11T17:10:14.013Z,5.37
2018-07-11T17:14:19.571Z,5.67
2018-07-11T17:18:45.339Z,6.50
2018-07-11T17:22:57.913Z,7.00
2018-07-11T17:27:02.703Z,5.83
2018-07-11T17:31:07.234Z,5.80
2018-07-11T17:35:11.810Z,5.90
2018-07-11T17:39:16.720Z,6.10
2018-07-11T17:43:22.380Z,6.20
2018-07-11T17:47:27.108Z,5.40
2018-07-11T17:52:13.142Z,6.90
2018-07-11T17:56:21.877Z,5.90
2018-07-11T18:00:37.244Z,6.87
2018-07-11T18:04:59.518Z,6.23
2018-07-11T18:09:10.146Z,6.10
2018-07-11T18:13:22.600Z,6.50
2018-07-11T18:17:37.295Z,6.00
2018-07-11T18:22:04.058Z,6.67
2018-07-11T18:26:48.522Z,4.43
2018-07-11T18:33:13.794Z,5.37
2018-07-11T18:37:56.676Z,4.77
2018-07-11T18:42:14.195Z,6.37
2018-07-11T18:46:26.622Z,7.37
2018-07-11T18:50:46.031Z,4.80
2018-07-11T18:55:01.846Z,4.73
2018-07-11T18:59:22.546Z,5.00
2018-07-11T19:03:38.807Z,5.23
2018-07-11T19:08:08.090Z,5.30
2018-07-11T19:12:29.781Z,4.83
2018-07-11T19:17:48.694Z,5.10
2018-07-11T19:22:03.666Z,6.63
2018-07-11T19:26:30.155Z,5.33
2018-07-11T19:30:47.783Z,4.40
2018-07-11T19:35:17.750Z,4.57
2018-07-11T19:43:35.717Z,4.90
2018-07-11T19:47:51.744Z,3.90
2018-07-11T19:52:08.995Z,3.70
2018-07-11T19:56:27.814Z,4.77
2018-07-11T20:00:33.361Z,5.40
2018-07-11T20:04:38.090Z,4.30
2018-07-11T20:08:43.175Z,4.90
2018-07-11T20:12:47.856Z,4.87
2018-07-11T20:16:53.293Z,4.33
2018-07-11T20:20:59.583Z,5.87
2018-07-11T20:25:04.129Z,4.60
2018-07-11T20:29:08.717Z,5.47
2018-07-11T20:33:13.174Z,4.13
2018-07-11T20:37:17.653Z,5.27
2018-07-11T20:41:22.302Z,5.37
2018-07-11T20:45:26.811Z,4.60
2018-07-11T20:49:35.246Z,5.77
2018-07-11T20:53:39.760Z,4.33
2018-07-11T20:57:44.216Z,4.13
2018-07-11T21:01:59.354Z,4.27
2018-07-11T21:06:14.366Z,4.77
2018-07-11T21:20:12.075Z,5.23
2018-07-11T21:24:16.457Z,4.73
2018-07-11T21:28:20.778Z,5.20
2018-07-11T21:32:25.149Z,5.40
2018-07-11T21:36:30.530Z,4.87
2018-07-11T21:40:34.875Z,4.43
2018-07-11T21:44:39.299Z,4.80
2018-07-11T21:48:44.019Z,4.60
2018-07-11T21:52:48.384Z,5.03
2018-07-11T21:56:52.977Z,4.57
2018-07-11T22:01:02.784Z,4.33
2018-07-11T22:05:07.171Z,3.70
2018-07-11T22:09:11.747Z,4.30
2018-07-11T22:13:16.081Z,4.13
2018-07-11T22:17:34.062Z,4.07
2018-07-11T22:21:36.868Z,3.83
2018-07-11T22:25:39.614Z,4.53
2018-07-11T22:29:42.472Z,4.47
2018-07-11T22:33:45.186Z,4.10
2018-07-11T22:37:48.078Z,4.37
2018-07-11T22:41:50.983Z,4.27
2018-07-11T22:45:53.765Z,4.80
2018-07-11T22:50:00.248Z,4.63
2018-07-11T22:54:03.097Z,4.43
2018-07-11T22:58:05.833Z,4.37
2018-07-11T23:02:08.613Z,5.00
2018-07-11T23:06:11.735Z,5.40
2018-07-11T23:10:14.488Z,4.50
2018-07-11T23:14:17.331Z,5.10
2018-07-11T23:18:20.079Z,4.97
2018-07-11T23:22:22.814Z,5.73
2018-07-11T23:26:25.625Z,5.30
2018-07-11T23:30:28.384Z,5.67
2018-07-11T23:34:31.184Z,4.87
2018-07-11T23:38:33.967Z,5.00
2018-07-11T23:42:36.723Z,5.10
2018-07-11T23:46:39.558Z,5.80
2018-07-11T23:50:42.307Z,5.87
2018-07-11T23:54:45.050Z,5.33
2018-07-11T23:58:48.143Z,5.70
